sensor_id;sensor_type;location;lat;lon;timestamp;temperature;humidity
9323;DHT22;4700;48.822;9.270;2022-12-31T00:02:31;13.00;1.00
9323;DHT22;4700;48.822;9.270;2022-12-31T00:05:17;13.00;1.00
9323;DHT22;4700;48.822;9.270;2022-12-31T00:08:04;13.10;1.00
9323;DHT22;4700;48.822;9.270;2022-12-31T00:10:50;13.10;1.00
9323;DHT22;4700;48.822;9.270;2022-12-31T00:13:36;13.00;1.00
9323;DHT22;4700;48.822;9.270;2022-12-31T00:16:23;13.10;1.00
9323;DHT22;4700;48.822;9.270;2022-12-31T00:19:10;13.10;1.00
9323;DHT22;4700;48.822;9.270;2022-12-31T00:21:56;13.10;1.00
9323;DHT22;4700;48.822;9.270;2022-12-31T00:24:43;13.10;1.00
9323;DHT22;4700;48.822;9.270;2022-12-31T00:27:29;13.00;1.00
9323;DHT22;4700;48.822;9.270;2022-12-31T00:30:15;13.10;1.00
9323;DHT22;4700;48.822;9.270;2022-12-31T00:33:01;13.10;1.00
9323;DHT22;4700;48.822;9.270;2022-12-31T00:35:46;13.20;1.00
9323;DHT22;4700;48.822;9.270;2022-12-31T00:38:33;13.30;1.00
9323;DHT22;4700;48.822;9.270;2022-12-31T00:41:21;13.40;1.00
9323;DHT22;4700;48.822;9.270;2022-12-31T00:44:09;13.40;1.00
9323;DHT22;4700;48.822;9.270;2022-12-31T00:46:55;13.50;1.00
9323;DHT22;4700;48.822;9.270;2022-12-31T00:49:41;13.50;1.00
9323;DHT22;4700;48.822;9.270;2022-12-31T00:52:27;13.50;1.00
9323;DHT22;4700;48.822;9.270;2022-12-31T00:55:12;13.60;1.00
9323;DHT22;4700;48.822;9.270;2022-12-31T00:58:00;13.50;1.00
9323;DHT22;4700;48.822;9.270;2022-12-31T01:00:45;13.60;1.00
9323;DHT22;4700;48.822;9.270;2022-12-31T01:03:31;13.60;1.00
9323;DHT22;4700;48.822;9.270;2022-12-31T01:06:17;13.60;1.00
9323;DHT22;4700;48.822;9.270;2022-12-31T01:09:04;13.60;1.00
9323;DHT22;4700;48.822;9.270;2022-12-31T01:11:50;13.60;1.00
9323;DHT22;4700;48.822;9.270;2022-12-31T01:14:37;13.60;1.00
9323;DHT22;4700;48.822;9.270;2022-12-31T01:17:23;13.70;1.00
9323;DHT22;4700;48.822;9.270;2022-12-31T01:20:09;13.60;1.00
9323;DHT22;4700;48.822;9.270;2022-12-31T01:22:55;13.50;1.00
9323;DHT22;4700;48.822;9.270;2022-12-31T01:25:41;13.50;1.00
9323;DHT22;4700;48.822;9.270;2022-12-31T01:28:27;13.50;1.00
9323;DHT22;4700;48.822;9.270;2022-12-31T01:31:16;13.50;1.00
9323;DHT22;4700;48.822;9.270;2022-12-31T01:34:02;13.50;1.00
9323;DHT22;4700;48.822;9.270;2022-12-31T01:36:47;13.50;1.00
9323;DHT22;4700;48.822;9.270;2022-12-31T01:39:33;13.50;1.00
9323;DHT22;4700;48.822;9.270;2022-12-31T01:42:19;13.50;1.00
9323;DHT22;4700;48.822;9.270;2022-12-31T01:45:09;13.40;1.00
9323;DHT22;4700;48.822;9.270;2022-12-31T01:47:58;13.50;1.00
9323;DHT22;4700;48.822;9.270;2022-12-31T01:50:45;13.40;1.00
9323;DHT22;4700;48.822;9.270;2022-12-31T01:53:32;13.30;1.00
9323;DHT22;4700;48.822;9.270;2022-12-31T01:56:18;13.30;1.00
9323;DHT22;4700;48.822;9.270;2022-12-31T01:59:07;13.00;1.00
9323;DHT22;4700;48.822;9.270;2022-12-31T02:01:55;13.10;1.00
9323;DHT22;4700;48.822;9.270;2022-12-31T02:04:42;13.10;1.00
9323;DHT22;4700;48.822;9.270;2022-12-31T02:07:28;13.00;1.00
9323;DHT22;4700;48.822;9.270;2022-12-31T02:10:13;12.90;1.00
9323;DHT22;4700;48.822;9.270;2022-12-31T02:12:59;12.90;1.00
9323;DHT22;4700;48.822;9.270;2022-12-31T02:15:50;13.00;1.00
9323;DHT22;4700;48.822;9.270;2022-12-31T02:18:54;13.00;1.00
9323;DHT22;4700;48.822;9.270;2022-12-31T02:21:55;13.00;1.00
9323;DHT22;4700;48.822;9.270;2022-12-31T02:25:35;13.00;1.00
9323;DHT22;4700;48.822;9.270;2022-12-31T02:28:35;13.00;1.00
9323;DHT22;4700;48.822;9.270;2022-12-31T02:31:28;13.00;1.00
9323;DHT22;4700;48.822;9.270;2022-12-31T02:34:19;13.00;1.00
9323;DHT22;4700;48.822;9.270;2022-12-31T02:37:12;13.00;1.00
9323;DHT22;4700;48.822;9.270;2022-12-31T02:39:59;13.20;1.00
9323;DHT22;4700;48.822;9.270;2022-12-31T02:42:44;13.40;1.00
9323;DHT22;4700;48.822;9.270;2022-12-31T02:45:34;13.50;1.00
9323;DHT22;4700;48.822;9.270;2022-12-31T02:48:35;13.60;1.00
9323;DHT22;4700;48.822;9.270;2022-12-31T02:51:32;13.70;1.00
9323;DHT22;4700;48.822;9.270;2022-12-31T02:54:27;13.70;1.00
9323;DHT22;4700;48.822;9.270;2022-12-31T02:57:18;13.80;1.00
9323;DHT22;4700;48.822;9.270;2022-12-31T03:00:08;13.70;1.00
9323;DHT22;4700;48.822;9.270;2022-12-31T03:03:12;13.70;1.00
9323;DHT22;4700;48.822;9.270;2022-12-31T03:06:01;13.60;1.00
9323;DHT22;4700;48.822;9.270;2022-12-31T03:08:47;13.60;1.00
9323;DHT22;4700;48.822;9.270;2022-12-31T03:11:46;13.40;1.00
9323;DHT22;4700;48.822;9.270;2022-12-31T03:14:50;13.40;1.00
9323;DHT22;4700;48.822;9.270;2022-12-31T03:17:39;13.40;1.00
9323;DHT22;4700;48.822;9.270;2022-12-31T03:20:28;13.40;1.00
9323;DHT22;4700;48.822;9.270;2022-12-31T03:23:36;13.30;1.00
9323;DHT22;4700;48.822;9.270;2022-12-31T03:26:22;13.20;1.00
9323;DHT22;4700;48.822;9.270;2022-12-31T03:29:07;13.20;1.00
9323;DHT22;4700;48.822;9.270;2022-12-31T03:31:53;13.20;1.00
9323;DHT22;4700;48.822;9.270;2022-12-31T03:34:38;13.20;1.00
9323;DHT22;4700;48.822;9.270;2022-12-31T03:37:24;13.20;1.00
9323;DHT22;4700;48.822;9.270;2022-12-31T03:40:13;13.00;1.00
9323;DHT22;4700;48.822;9.270;2022-12-31T03:42:59;13.40;1.00
9323;DHT22;4700;48.822;9.270;2022-12-31T03:45:47;13.50;1.00
9323;DHT22;4700;48.822;9.270;2022-12-31T03:48:33;13.60;1.00
9323;DHT22;4700;48.822;9.270;2022-12-31T03:51:19;13.70;1.00
9323;DHT22;4700;48.822;9.270;2022-12-31T03:54:04;13.80;1.00
9323;DHT22;4700;48.822;9.270;2022-12-31T03:56:51;13.80;1.00
9323;DHT22;4700;48.822;9.270;2022-12-31T03:59:37;13.70;1.00
9323;DHT22;4700;48.822;9.270;2022-12-31T04:02:23;13.80;1.00
9323;DHT22;4700;48.822;9.270;2022-12-31T04:05:09;13.80;1.00
9323;DHT22;4700;48.822;9.270;2022-12-31T04:07:55;14.00;1.00
9323;DHT22;4700;48.822;9.270;2022-12-31T04:10:41;14.00;1.00
9323;DHT22;4700;48.822;9.270;2022-12-31T04:13:28;14.00;1.00
9323;DHT22;4700;48.822;9.270;2022-12-31T04:16:09;14.10;1.00
9323;DHT22;4700;48.822;9.270;2022-12-31T04:18:54;14.20;1.00
9323;DHT22;4700;48.822;9.270;2022-12-31T04:21:40;14.30;1.00
9323;DHT22;4700;48.822;9.270;2022-12-31T04:24:26;14.40;1.00
9323;DHT22;4700;48.822;9.270;2022-12-31T04:27:12;14.40;1.00
9323;DHT22;4700;48.822;9.270;2022-12-31T04:30:00;14.50;1.00
9323;DHT22;4700;48.822;9.270;2022-12-31T04:32:46;14.40;1.00
9323;DHT22;4700;48.822;9.270;2022-12-31T04:35:31;14.50;1.00
9323;DHT22;4700;48.822;9.270;2022-12-31T04:38:19;14.50;1.00
9323;DHT22;4700;48.822;9.270;2022-12-31T04:41:05;14.50;1.00
9323;DHT22;4700;48.822;9.270;2022-12-31T04:44:03;14.50;1.00
9323;DHT22;4700;48.822;9.270;2022-12-31T04:46:51;14.60;1.00
9323;DHT22;4700;48.822;9.270;2022-12-31T04:49:36;14.60;1.00
9323;DHT22;4700;48.822;9.270;2022-12-31T04:52:22;14.70;1.00
9323;DHT22;4700;48.822;9.270;2022-12-31T04:55:08;14.60;1.00
9323;DHT22;4700;48.822;9.270;2022-12-31T04:57:54;14.60;1.00
9323;DHT22;4700;48.822;9.270;2022-12-31T05:00:39;14.70;1.00
9323;DHT22;4700;48.822;9.270;2022-12-31T05:03:27;14.60;1.00
9323;DHT22;4700;48.822;9.270;2022-12-31T05:06:14;14.70;1.00
9323;DHT22;4700;48.822;9.270;2022-12-31T05:09:00;14.70;1.00
9323;DHT22;4700;48.822;9.270;2022-12-31T05:11:46;14.60;1.00
9323;DHT22;4700;48.822;9.270;2022-12-31T05:14:31;14.50;1.00
9323;DHT22;4700;48.822;9.270;2022-12-31T05:17:17;14.50;1.00
9323;DHT22;4700;48.822;9.270;2022-12-31T05:20:09;14.40;1.00
9323;DHT22;4700;48.822;9.270;2022-12-31T05:22:54;14.30;1.00
9323;DHT22;4700;48.822;9.270;2022-12-31T05:25:41;14.20;1.00
9323;DHT22;4700;48.822;9.270;2022-12-31T05:28:27;14.20;1.00
9323;DHT22;4700;48.822;9.270;2022-12-31T05:31:13;14.10;1.00
9323;DHT22;4700;48.822;9.270;2022-12-31T05:33:59;14.00;1.00
9323;DHT22;4700;48.822;9.270;2022-12-31T05:36:46;14.10;1.00
9323;DHT22;4700;48.822;9.270;2022-12-31T05:39:31;14.10;1.00
9323;DHT22;4700;48.822;9.270;2022-12-31T05:42:18;14.10;1.00
9323;DHT22;4700;48.822;9.270;2022-12-31T05:45:06;14.20;1.00
9323;DHT22;4700;48.822;9.270;2022-12-31T05:47:52;14.20;1.00
9323;DHT22;4700;48.822;9.270;2022-12-31T05:50:38;14.20;1.00
9323;DHT22;4700;48.822;9.270;2022-12-31T05:53:28;14.40;1.00
9323;DHT22;4700;48.822;9.270;2022-12-31T05:56:13;15.00;1.00
9323;DHT22;4700;48.822;9.270;2022-12-31T05:59:01;14.30;1.00
9323;DHT22;4700;48.822;9.270;2022-12-31T06:01:46;14.30;1.00
9323;DHT22;4700;48.822;9.270;2022-12-31T06:04:32;14.30;1.00
9323;DHT22;4700;48.822;9.270;2022-12-31T06:07:18;14.20;1.00
9323;DHT22;4700;48.822;9.270;2022-12-31T06:10:08;14.20;1.00
9323;DHT22;4700;48.822;9.270;2022-12-31T06:12:54;14.20;1.00
9323;DHT22;4700;48.822;9.270;2022-12-31T06:15:39;14.30;1.00
9323;DHT22;4700;48.822;9.270;2022-12-31T06:18:25;14.20;1.00
9323;DHT22;4700;48.822;9.270;2022-12-31T06:21:11;14.30;1.00
9323;DHT22;4700;48.822;9.270;2022-12-31T06:23:59;14.30;1.00
9323;DHT22;4700;48.822;9.270;2022-12-31T06:26:46;14.50;1.00
9323;DHT22;4700;48.822;9.270;2022-12-31T06:29:32;14.50;1.00
9323;DHT22;4700;48.822;9.270;2022-12-31T06:32:17;14.60;1.00
9323;DHT22;4700;48.822;9.270;2022-12-31T06:35:04;14.50;1.00
9323;DHT22;4700;48.822;9.270;2022-12-31T06:37:51;14.50;1.00
9323;DHT22;4700;48.822;9.270;2022-12-31T06:40:37;14.60;1.00
9323;DHT22;4700;48.822;9.270;2022-12-31T06:43:24;14.60;1.00
9323;DHT22;4700;48.822;9.270;2022-12-31T06:46:14;14.50;1.00
9323;DHT22;4700;48.822;9.270;2022-12-31T06:49:00;14.60;1.00
9323;DHT22;4700;48.822;9.270;2022-12-31T06:51:46;14.80;1.00
9323;DHT22;4700;48.822;9.270;2022-12-31T06:54:32;14.70;1.00
9323;DHT22;4700;48.822;9.270;2022-12-31T06:57:18;14.80;1.00
9323;DHT22;4700;48.822;9.270;2022-12-31T07:00:08;14.90;1.00
9323;DHT22;4700;48.822;9.270;2022-12-31T07:03:11;14.90;1.00
9323;DHT22;4700;48.822;9.270;2022-12-31T07:06:03;14.90;1.00
9323;DHT22;4700;48.822;9.270;2022-12-31T07:08:57;14.80;1.00
9323;DHT22;4700;48.822;9.270;2022-12-31T07:11:51;14.80;1.00
9323;DHT22;4700;48.822;9.270;2022-12-31T07:14:42;14.80;1.00
9323;DHT22;4700;48.822;9.270;2022-12-31T07:17:36;14.80;1.00
9323;DHT22;4700;48.822;9.270;2022-12-31T07:20:25;14.70;1.00
9323;DHT22;4700;48.822;9.270;2022-12-31T07:23:11;14.90;1.00
9323;DHT22;4700;48.822;9.270;2022-12-31T07:26:02;14.80;1.00
9323;DHT22;4700;48.822;9.270;2022-12-31T07:28:57;14.80;1.00
9323;DHT22;4700;48.822;9.270;2022-12-31T07:31:55;14.80;1.00
9323;DHT22;4700;48.822;9.270;2022-12-31T07:34:52;14.80;1.00
9323;DHT22;4700;48.822;9.270;2022-12-31T07:37:45;14.90;1.00
9323;DHT22;4700;48.822;9.270;2022-12-31T07:40:42;14.80;1.00
9323;DHT22;4700;48.822;9.270;2022-12-31T07:43:35;14.90;1.00
9323;DHT22;4700;48.822;9.270;2022-12-31T07:46:29;14.90;1.00
9323;DHT22;4700;48.822;9.270;2022-12-31T07:49:18;14.90;1.00
9323;DHT22;4700;48.822;9.270;2022-12-31T07:52:08;15.00;1.00
9323;DHT22;4700;48.822;9.270;2022-12-31T07:54:54;15.10;1.00
9323;DHT22;4700;48.822;9.270;2022-12-31T07:57:45;15.10;1.00
9323;DHT22;4700;48.822;9.270;2022-12-31T08:00:33;15.30;1.00
9323;DHT22;4700;48.822;9.270;2022-12-31T08:03:34;15.30;1.00
9323;DHT22;4700;48.822;9.270;2022-12-31T08:06:29;15.30;1.00
9323;DHT22;4700;48.822;9.270;2022-12-31T08:09:34;15.50;1.00
9323;DHT22;4700;48.822;9.270;2022-12-31T08:12:22;15.60;1.00
9323;DHT22;4700;48.822;9.270;2022-12-31T08:15:13;15.60;1.00
9323;DHT22;4700;48.822;9.270;2022-12-31T08:17:59;15.50;1.00
9323;DHT22;4700;48.822;9.270;2022-12-31T08:20:54;15.60;1.00
9323;DHT22;4700;48.822;9.270;2022-12-31T08:23:46;15.80;1.00
9323;DHT22;4700;48.822;9.270;2022-12-31T08:26:37;15.80;1.00
9323;DHT22;4700;48.822;9.270;2022-12-31T08:29:30;15.90;1.00
9323;DHT22;4700;48.822;9.270;2022-12-31T08:32:22;16.00;1.00
9323;DHT22;4700;48.822;9.270;2022-12-31T08:35:18;16.00;1.00
9323;DHT22;4700;48.822;9.270;2022-12-31T08:38:11;16.00;1.00
9323;DHT22;4700;48.822;9.270;2022-12-31T08:41:06;16.00;1.00
9323;DHT22;4700;48.822;9.270;2022-12-31T08:44:02;16.00;1.00
9323;DHT22;4700;48.822;9.270;2022-12-31T08:46:55;16.10;1.00
9323;DHT22;4700;48.822;9.270;2022-12-31T08:49:42;16.10;1.00
9323;DHT22;4700;48.822;9.270;2022-12-31T08:52:28;16.10;1.00
9323;DHT22;4700;48.822;9.270;2022-12-31T08:55:15;16.30;1.00
9323;DHT22;4700;48.822;9.270;2022-12-31T08:58:10;16.40;1.00
9323;DHT22;4700;48.822;9.270;2022-12-31T09:01:03;16.20;1.00
9323;DHT22;4700;48.822;9.270;2022-12-31T09:04:02;16.40;1.00
9323;DHT22;4700;48.822;9.270;2022-12-31T09:06:55;16.40;1.00
9323;DHT22;4700;48.822;9.270;2022-12-31T09:09:54;16.50;1.00
9323;DHT22;4700;48.822;9.270;2022-12-31T09:12:47;16.60;1.00
9323;DHT22;4700;48.822;9.270;2022-12-31T09:15:40;16.70;1.00
9323;DHT22;4700;48.822;9.270;2022-12-31T09:18:28;16.80;1.00
9323;DHT22;4700;48.822;9.270;2022-12-31T09:21:15;17.00;1.00
9323;DHT22;4700;48.822;9.270;2022-12-31T09:24:02;16.90;1.00
9323;DHT22;4700;48.822;9.270;2022-12-31T09:26:59;17.00;1.00
9323;DHT22;4700;48.822;9.270;2022-12-31T09:29:54;17.10;1.00
9323;DHT22;4700;48.822;9.270;2022-12-31T09:32:46;17.40;1.00
9323;DHT22;4700;48.822;9.270;2022-12-31T09:35:39;17.80;1.00
9323;DHT22;4700;48.822;9.270;2022-12-31T09:38:31;18.00;1.00
9323;DHT22;4700;48.822;9.270;2022-12-31T09:41:37;18.10;1.00
9323;DHT22;4700;48.822;9.270;2022-12-31T09:44:52;18.00;1.00
9323;DHT22;4700;48.822;9.270;2022-12-31T09:48:08;17.90;1.00
9323;DHT22;4700;48.822;9.270;2022-12-31T09:51:15;17.80;1.00
9323;DHT22;4700;48.822;9.270;2022-12-31T09:54:22;17.80;1.00
9323;DHT22;4700;48.822;9.270;2022-12-31T09:57:30;17.80;1.00
9323;DHT22;4700;48.822;9.270;2022-12-31T10:00:20;17.90;1.00
9323;DHT22;4700;48.822;9.270;2022-12-31T10:03:20;18.10;1.00
9323;DHT22;4700;48.822;9.270;2022-12-31T10:06:20;18.10;1.00
9323;DHT22;4700;48.822;9.270;2022-12-31T10:09:20;18.00;1.00
9323;DHT22;4700;48.822;9.270;2022-12-31T10:12:32;18.10;1.00
9323;DHT22;4700;48.822;9.270;2022-12-31T10:15:42;18.30;1.00
9323;DHT22;4700;48.822;9.270;2022-12-31T10:22:05;18.30;1.00
9323;DHT22;4700;48.822;9.270;2022-12-31T10:25:05;18.00;1.00
9323;DHT22;4700;48.822;9.270;2022-12-31T10:27:57;18.60;1.00
9323;DHT22;4700;48.822;9.270;2022-12-31T10:30:53;18.50;1.00
9323;DHT22;4700;48.822;9.270;2022-12-31T10:33:43;18.60;1.00
9323;DHT22;4700;48.822;9.270;2022-12-31T10:36:50;18.50;1.00
9323;DHT22;4700;48.822;9.270;2022-12-31T10:39:47;18.50;1.00
9323;DHT22;4700;48.822;9.270;2022-12-31T10:42:59;18.60;1.00
9323;DHT22;4700;48.822;9.270;2022-12-31T10:49:19;18.40;1.00
9323;DHT22;4700;48.822;9.270;2022-12-31T10:52:49;18.30;1.00
9323;DHT22;4700;48.822;9.270;2022-12-31T10:59:30;18.20;1.00
9323;DHT22;4700;48.822;9.270;2022-12-31T11:05:57;18.20;1.00
9323;DHT22;4700;48.822;9.270;2022-12-31T11:09:20;18.20;1.00
9323;DHT22;4700;48.822;9.270;2022-12-31T11:12:18;18.30;1.00
9323;DHT22;4700;48.822;9.270;2022-12-31T11:17:54;18.30;1.00
9323;DHT22;4700;48.822;9.270;2022-12-31T11:20:54;18.40;1.00
9323;DHT22;4700;48.822;9.270;2022-12-31T11:23:50;18.30;1.00
9323;DHT22;4700;48.822;9.270;2022-12-31T11:26:49;18.40;1.00
9323;DHT22;4700;48.822;9.270;2022-12-31T11:29:56;18.30;1.00
9323;DHT22;4700;48.822;9.270;2022-12-31T11:32:56;18.30;1.00
9323;DHT22;4700;48.822;9.270;2022-12-31T11:35:59;18.40;1.00
9323;DHT22;4700;48.822;9.270;2022-12-31T11:38:50;18.70;1.00
9323;DHT22;4700;48.822;9.270;2022-12-31T11:41:42;18.70;1.00
9323;DHT22;4700;48.822;9.270;2022-12-31T11:44:38;18.70;1.00
9323;DHT22;4700;48.822;9.270;2022-12-31T11:50:51;18.70;1.00
9323;DHT22;4700;48.822;9.270;2022-12-31T11:53:52;18.70;1.00
9323;DHT22;4700;48.822;9.270;2022-12-31T11:56:49;18.60;1.00
9323;DHT22;4700;48.822;9.270;2022-12-31T11:59:35;18.60;1.00
9323;DHT22;4700;48.822;9.270;2022-12-31T12:02:24;18.80;1.00
9323;DHT22;4700;48.822;9.270;2022-12-31T12:05:14;18.70;1.00
9323;DHT22;4700;48.822;9.270;2022-12-31T12:08:02;18.70;1.00
9323;DHT22;4700;48.822;9.270;2022-12-31T12:10:51;18.80;1.00
9323;DHT22;4700;48.822;9.270;2022-12-31T12:13:37;18.70;1.00
9323;DHT22;4700;48.822;9.270;2022-12-31T12:16:25;18.70;1.00
9323;DHT22;4700;48.822;9.270;2022-12-31T12:19:16;18.70;1.00
9323;DHT22;4700;48.822;9.270;2022-12-31T12:22:09;18.70;1.00
9323;DHT22;4700;48.822;9.270;2022-12-31T12:25:06;18.90;1.00
9323;DHT22;4700;48.822;9.270;2022-12-31T12:27:52;18.90;1.00
9323;DHT22;4700;48.822;9.270;2022-12-31T12:30:38;19.10;1.00
9323;DHT22;4700;48.822;9.270;2022-12-31T12:33:28;19.10;1.00
9323;DHT22;4700;48.822;9.270;2022-12-31T12:36:16;19.00;1.00
9323;DHT22;4700;48.822;9.270;2022-12-31T12:39:04;19.00;1.00
9323;DHT22;4700;48.822;9.270;2022-12-31T12:42:01;18.90;1.00
9323;DHT22;4700;48.822;9.270;2022-12-31T12:44:47;18.90;1.00
9323;DHT22;4700;48.822;9.270;2022-12-31T12:47:33;18.80;1.00
9323;DHT22;4700;48.822;9.270;2022-12-31T12:50:22;18.80;1.00
9323;DHT22;4700;48.822;9.270;2022-12-31T12:53:16;18.80;1.00
9323;DHT22;4700;48.822;9.270;2022-12-31T12:56:17;18.90;1.00
9323;DHT22;4700;48.822;9.270;2022-12-31T12:59:38;18.90;1.00
9323;DHT22;4700;48.822;9.270;2022-12-31T13:02:44;18.90;1.00
9323;DHT22;4700;48.822;9.270;2022-12-31T13:05:45;18.90;1.00
9323;DHT22;4700;48.822;9.270;2022-12-31T13:08:44;18.90;1.00
9323;DHT22;4700;48.822;9.270;2022-12-31T13:11:39;18.90;1.00
9323;DHT22;4700;48.822;9.270;2022-12-31T13:14:35;19.00;1.00
9323;DHT22;4700;48.822;9.270;2022-12-31T13:17:55;18.90;1.00
9323;DHT22;4700;48.822;9.270;2022-12-31T13:20:46;18.90;1.00
9323;DHT22;4700;48.822;9.270;2022-12-31T13:23:38;18.90;1.00
9323;DHT22;4700;48.822;9.270;2022-12-31T13:26:28;19.00;1.00
9323;DHT22;4700;48.822;9.270;2022-12-31T13:29:19;19.00;1.00
9323;DHT22;4700;48.822;9.270;2022-12-31T13:32:09;18.80;1.00
9323;DHT22;4700;48.822;9.270;2022-12-31T13:35:08;18.90;1.00
9323;DHT22;4700;48.822;9.270;2022-12-31T13:38:02;18.50;1.00
9323;DHT22;4700;48.822;9.270;2022-12-31T13:40:53;18.80;1.00
9323;DHT22;4700;48.822;9.270;2022-12-31T13:43:46;18.80;1.00
9323;DHT22;4700;48.822;9.270;2022-12-31T13:46:38;18.70;1.00
9323;DHT22;4700;48.822;9.270;2022-12-31T13:49:31;18.70;1.00
9323;DHT22;4700;48.822;9.270;2022-12-31T13:52:26;18.60;1.00
9323;DHT22;4700;48.822;9.270;2022-12-31T13:55:18;18.70;1.00
9323;DHT22;4700;48.822;9.270;2022-12-31T13:58:10;18.50;1.00
9323;DHT22;4700;48.822;9.270;2022-12-31T14:01:04;18.50;1.00
9323;DHT22;4700;48.822;9.270;2022-12-31T14:03:55;18.40;1.00
9323;DHT22;4700;48.822;9.270;2022-12-31T14:06:49;18.40;1.00
9323;DHT22;4700;48.822;9.270;2022-12-31T14:09:36;18.30;1.00
9323;DHT22;4700;48.822;9.270;2022-12-31T14:12:31;18.30;1.00
9323;DHT22;4700;48.822;9.270;2022-12-31T14:15:24;18.10;1.00
9323;DHT22;4700;48.822;9.270;2022-12-31T14:18:18;18.00;1.00
9323;DHT22;4700;48.822;9.270;2022-12-31T14:21:10;18.00;1.00
9323;DHT22;4700;48.822;9.270;2022-12-31T14:24:04;17.80;1.00
9323;DHT22;4700;48.822;9.270;2022-12-31T14:26:53;17.80;1.00
9323;DHT22;4700;48.822;9.270;2022-12-31T14:29:45;17.70;1.00
9323;DHT22;4700;48.822;9.270;2022-12-31T14:36:15;17.50;1.00
9323;DHT22;4700;48.822;9.270;2022-12-31T14:39:17;17.40;1.00
9323;DHT22;4700;48.822;9.270;2022-12-31T14:42:14;17.30;1.00
9323;DHT22;4700;48.822;9.270;2022-12-31T14:45:14;17.20;1.00
9323;DHT22;4700;48.822;9.270;2022-12-31T14:48:08;17.30;1.00
9323;DHT22;4700;48.822;9.270;2022-12-31T14:50:58;17.20;1.00
9323;DHT22;4700;48.822;9.270;2022-12-31T14:53:52;17.20;1.00
9323;DHT22;4700;48.822;9.270;2022-12-31T14:56:41;17.10;1.00
9323;DHT22;4700;48.822;9.270;2022-12-31T14:59:29;17.00;1.00
9323;DHT22;4700;48.822;9.270;2022-12-31T15:02:25;17.00;1.00
9323;DHT22;4700;48.822;9.270;2022-12-31T15:05:15;16.90;1.00
9323;DHT22;4700;48.822;9.270;2022-12-31T15:08:11;16.80;1.00
9323;DHT22;4700;48.822;9.270;2022-12-31T15:11:14;16.80;1.00
9323;DHT22;4700;48.822;9.270;2022-12-31T15:14:24;16.70;1.00
9323;DHT22;4700;48.822;9.270;2022-12-31T15:17:23;16.50;1.00
9323;DHT22;4700;48.822;9.270;2022-12-31T15:20:48;16.40;1.00
9323;DHT22;4700;48.822;9.270;2022-12-31T15:23:38;15.80;1.00
9323;DHT22;4700;48.822;9.270;2022-12-31T15:26:27;16.20;1.00
9323;DHT22;4700;48.822;9.270;2022-12-31T15:29:24;16.10;1.00
9323;DHT22;4700;48.822;9.270;2022-12-31T15:32:17;16.90;1.00
9323;DHT22;4700;48.822;9.270;2022-12-31T15:35:24;16.00;1.00
9323;DHT22;4700;48.822;9.270;2022-12-31T15:38:33;15.90;1.00
9323;DHT22;4700;48.822;9.270;2022-12-31T15:41:27;15.80;1.00
9323;DHT22;4700;48.822;9.270;2022-12-31T15:44:18;15.80;1.00
9323;DHT22;4700;48.822;9.270;2022-12-31T15:47:15;15.60;1.00
9323;DHT22;4700;48.822;9.270;2022-12-31T15:50:03;15.50;1.00
9323;DHT22;4700;48.822;9.270;2022-12-31T15:52:53;15.50;1.00
9323;DHT22;4700;48.822;9.270;2022-12-31T15:55:43;15.40;1.00
9323;DHT22;4700;48.822;9.270;2022-12-31T15:58:34;15.40;1.00
9323;DHT22;4700;48.822;9.270;2022-12-31T16:01:22;15.30;1.00
9323;DHT22;4700;48.822;9.270;2022-12-31T16:04:15;15.30;1.00
9323;DHT22;4700;48.822;9.270;2022-12-31T16:07:02;15.40;1.00
9323;DHT22;4700;48.822;9.270;2022-12-31T16:09:51;15.30;1.00
9323;DHT22;4700;48.822;9.270;2022-12-31T16:12:38;15.30;1.00
9323;DHT22;4700;48.822;9.270;2022-12-31T16:15:26;15.30;1.00
9323;DHT22;4700;48.822;9.270;2022-12-31T16:18:12;15.20;1.00
9323;DHT22;4700;48.822;9.270;2022-12-31T16:20:59;15.20;1.00
9323;DHT22;4700;48.822;9.270;2022-12-31T16:23:48;15.20;1.00
9323;DHT22;4700;48.822;9.270;2022-12-31T16:26:43;15.10;1.00
9323;DHT22;4700;48.822;9.270;2022-12-31T16:29:30;15.10;1.00
9323;DHT22;4700;48.822;9.270;2022-12-31T16:32:18;15.00;1.00
9323;DHT22;4700;48.822;9.270;2022-12-31T16:35:19;14.90;1.00
9323;DHT22;4700;48.822;9.270;2022-12-31T16:38:15;14.80;1.00
9323;DHT22;4700;48.822;9.270;2022-12-31T16:41:14;14.80;1.00
9323;DHT22;4700;48.822;9.270;2022-12-31T16:44:04;14.80;1.00
9323;DHT22;4700;48.822;9.270;2022-12-31T16:46:54;14.70;1.00
9323;DHT22;4700;48.822;9.270;2022-12-31T16:49:40;14.70;1.00
9323;DHT22;4700;48.822;9.270;2022-12-31T16:52:31;14.70;1.00
9323;DHT22;4700;48.822;9.270;2022-12-31T16:55:20;14.70;1.00
9323;DHT22;4700;48.822;9.270;2022-12-31T16:58:14;14.70;1.00
9323;DHT22;4700;48.822;9.270;2022-12-31T17:01:08;14.70;1.00
9323;DHT22;4700;48.822;9.270;2022-12-31T17:03:57;14.70;1.00
9323;DHT22;4700;48.822;9.270;2022-12-31T17:06:44;14.70;1.00
9323;DHT22;4700;48.822;9.270;2022-12-31T17:09:31;14.70;1.00
9323;DHT22;4700;48.822;9.270;2022-12-31T17:12:22;14.60;1.00
9323;DHT22;4700;48.822;9.270;2022-12-31T17:15:19;14.60;1.00
9323;DHT22;4700;48.822;9.270;2022-12-31T17:18:05;14.50;1.00
9323;DHT22;4700;48.822;9.270;2022-12-31T17:20:53;14.50;1.00
9323;DHT22;4700;48.822;9.270;2022-12-31T17:23:40;14.50;1.00
9323;DHT22;4700;48.822;9.270;2022-12-31T17:26:28;14.50;1.00
9323;DHT22;4700;48.822;9.270;2022-12-31T17:29:20;14.40;1.00
9323;DHT22;4700;48.822;9.270;2022-12-31T17:32:26;14.50;1.00
9323;DHT22;4700;48.822;9.270;2022-12-31T17:35:26;14.40;1.00
9323;DHT22;4700;48.822;9.270;2022-12-31T17:38:29;14.50;1.00
9323;DHT22;4700;48.822;9.270;2022-12-31T17:41:25;14.50;1.00
9323;DHT22;4700;48.822;9.270;2022-12-31T17:44:14;14.50;1.00
9323;DHT22;4700;48.822;9.270;2022-12-31T17:47:03;14.60;1.00
9323;DHT22;4700;48.822;9.270;2022-12-31T17:49:49;14.50;1.00
9323;DHT22;4700;48.822;9.270;2022-12-31T17:52:34;14.50;1.00
9323;DHT22;4700;48.822;9.270;2022-12-31T17:55:20;14.50;1.00
9323;DHT22;4700;48.822;9.270;2022-12-31T17:58:06;14.40;1.00
9323;DHT22;4700;48.822;9.270;2022-12-31T18:00:52;14.50;1.00
9323;DHT22;4700;48.822;9.270;2022-12-31T18:03:39;14.50;1.00
9323;DHT22;4700;48.822;9.270;2022-12-31T18:06:27;14.50;1.00
9323;DHT22;4700;48.822;9.270;2022-12-31T18:09:13;14.50;1.00
9323;DHT22;4700;48.822;9.270;2022-12-31T18:12:00;14.40;1.00
9323;DHT22;4700;48.822;9.270;2022-12-31T18:14:48;14.50;1.00
9323;DHT22;4700;48.822;9.270;2022-12-31T18:17:34;14.40;1.00
9323;DHT22;4700;48.822;9.270;2022-12-31T18:20:21;14.40;1.00
9323;DHT22;4700;48.822;9.270;2022-12-31T18:23:11;14.30;1.00
9323;DHT22;4700;48.822;9.270;2022-12-31T18:25:58;14.30;1.00
9323;DHT22;4700;48.822;9.270;2022-12-31T18:28:44;14.20;1.00
9323;DHT22;4700;48.822;9.270;2022-12-31T18:31:30;14.20;1.00
9323;DHT22;4700;48.822;9.270;2022-12-31T18:34:16;14.20;1.00
9323;DHT22;4700;48.822;9.270;2022-12-31T18:37:09;14.20;1.00
9323;DHT22;4700;48.822;9.270;2022-12-31T18:39:55;14.20;1.00
9323;DHT22;4700;48.822;9.270;2022-12-31T18:42:42;14.20;1.00
9323;DHT22;4700;48.822;9.270;2022-12-31T18:45:28;14.20;1.00
9323;DHT22;4700;48.822;9.270;2022-12-31T18:48:13;14.30;1.00
9323;DHT22;4700;48.822;9.270;2022-12-31T18:50:59;14.30;1.00
9323;DHT22;4700;48.822;9.270;2022-12-31T18:53:46;14.30;1.00
9323;DHT22;4700;48.822;9.270;2022-12-31T18:56:32;14.30;1.00
9323;DHT22;4700;48.822;9.270;2022-12-31T18:59:18;14.30;1.00
9323;DHT22;4700;48.822;9.270;2022-12-31T19:02:04;14.30;1.00
9323;DHT22;4700;48.822;9.270;2022-12-31T19:04:55;14.30;1.00
9323;DHT22;4700;48.822;9.270;2022-12-31T19:07:41;14.30;1.00
9323;DHT22;4700;48.822;9.270;2022-12-31T19:10:28;14.40;1.00
9323;DHT22;4700;48.822;9.270;2022-12-31T19:13:16;14.30;1.00
9323;DHT22;4700;48.822;9.270;2022-12-31T19:16:02;14.40;1.00
9323;DHT22;4700;48.822;9.270;2022-12-31T19:18:47;14.30;1.00
9323;DHT22;4700;48.822;9.270;2022-12-31T19:21:33;14.30;1.00